Terminal Aerodrome Forecast
Issued by NWS Quad Cities IA IL

Home | Current Version | Previous Version | Text Only | Print | Product List | Glossary On
Versions: 1 2 3 4 5 6 7 8 9 10 11 12 13 14 15 16
000
FTUS43 KDVN 312323
TAFDBQ
TAF
KDBQ 312323Z 0100/0124 31013KT P6SM SKC
     FM010100 31006KT P6SM SKC
     FM010500 27004KT P6SM SKC
     FM010800 25004KT P6SM FEW100
     FM011400 28010KT P6SM SKC
     FM011800 28011G16KT P6SM FEW080=

USA.gov is the U.S. government's official web portal to all federal, state and local government web resources and services.